Terminal Aerodrome Forecast
Issued by NWS Midland/Odessa, TX

Home | Current Version | Previous Version | Text Only | Print | Product List | Glossary On
Versions: 1 2 3 4 5 6 7 8 9 10 11 12 13 14 15 16 17 18 19
535
FTUS44 KMAF 201727
TAFMAF
TAF
KMAF 201727Z 2018/2118 19014G20KT P6SM FEW120 SCT200
     FM210600 18012G18KT P6SM BKN020
     FM211500 19012KT P6SM FEW020 SCT100=

USA.gov is the U.S. government's official web portal to all federal, state and local government web resources and services.